KDLH/DLH METAR and TAF weather

Enter ICAO airport designator
Station Type Date Time Source
KDLH METAR 2019/08/24 19:55 UTC NOAA

KDLH 241955Z 14011KT 10SM FEW050 23/13 A3021 RMK AO2 SLP229 T02280133


Station Type Date Time Source
KDLH Decoded METAR 2019/08/24 19:55 UTC NOAA

Station name not available
Aug 24, 2019 - 03:55 PM EDT / 2019.08.24 1955 UTC
Wind: from the SE (140 degrees) at 13 MPH (11 KT):0
Visibility: 10 mile(s):0
Sky conditions: mostly clear
Temperature: 73.0 F (22.8 C)
Dew Point: 55.9 F (13.3 C)
Relative Humidity: 55%
Pressure (altimeter): 30.21 in. Hg (1023 hPa)
ob: KDLH 241955Z 14011KT 10SM FEW050 23/13 A3021 RMK AO2 SLP229 T02280133
cycle: 20

Station Type Date Time Source
KDLH TAF 2019/08/24 18:40 UTC NOAA

TAF KDLH 241737Z 2418/2518 14008KT P6SM BKN100
FM250600 16006KT P6SM BKN040
FM251000 16007KT P6SM SCT015 BKN030
FM251400 16010KT P6SM BKN040

Example: see airport list